createdAt,value
2022-10-29T00:02:35.756Z,10.40
2022-10-29T00:08:15.669Z,11.50
2022-10-29T00:13:56.644Z,11.50
2022-10-29T00:19:36.688Z,10.40
2022-10-29T00:25:23.697Z,9.90
2022-10-29T00:31:03.635Z,10.20
2022-10-29T00:36:44.677Z,10.70
2022-10-29T00:42:30.696Z,10.30
2022-10-29T00:48:10.718Z,10.10
2022-10-29T00:53:55.732Z,10.80
2022-10-29T00:59:35.676Z,10.20
2022-10-29T01:05:17.730Z,10.00
2022-10-29T01:11:08.669Z,10.00
2022-10-29T01:16:56.675Z,11.70
2022-10-29T01:22:42.744Z,12.00
2022-10-29T01:28:36.832Z,10.20
2022-10-29T01:34:26.731Z,10.40
2022-10-29T01:40:15.767Z,10.80
2022-10-29T01:46:02.750Z,11.00
2022-10-29T01:51:45.731Z,10.60
2022-10-29T01:57:46.781Z,10.60
2022-10-29T02:03:39.697Z,11.60
2022-10-29T02:09:26.701Z,11.60
2022-10-29T02:15:11.869Z,11.30
2022-10-29T02:20:57.713Z,10.00
2022-10-29T02:26:37.689Z,10.70
2022-10-29T02:32:17.725Z,9.50
2022-10-29T02:37:57.753Z,9.40
2022-10-29T02:43:37.725Z,8.60
2022-10-29T02:49:17.751Z,8.40
2022-10-29T02:54:57.760Z,8.70
2022-10-29T03:00:37.759Z,8.20
2022-10-29T03:06:24.778Z,7.60
2022-10-29T03:12:04.799Z,7.50
2022-10-29T03:17:44.972Z,7.90
2022-10-29T03:23:24.835Z,8.40
2022-10-29T03:29:11.743Z,7.70
2022-10-29T03:34:55.966Z,8.40
2022-10-29T03:40:38.778Z,9.10
2022-10-29T03:46:18.763Z,9.80
2022-10-29T03:51:58.787Z,9.90
2022-10-29T03:57:38.856Z,10.10
2022-10-29T04:03:18.812Z,9.90
2022-10-29T04:08:59.779Z,11.60
2022-10-29T04:14:44.508Z,8.90
2022-10-29T04:20:45.342Z,7.40
2022-10-29T04:32:24.733Z,7.10
2022-10-29T04:38:04.803Z,6.20
2022-10-29T04:43:45.957Z,6.40
2022-10-29T04:49:25.984Z,6.60
2022-10-29T04:55:05.817Z,6.70
2022-10-29T05:00:45.889Z,6.90
2022-10-29T05:06:25.821Z,6.00
2022-10-29T05:12:05.813Z,6.80
2022-10-29T05:17:49.833Z,6.40
2022-10-29T05:23:29.789Z,6.40
2022-10-29T05:29:09.864Z,6.50
2022-10-29T05:34:49.871Z,6.30
2022-10-29T05:40:29.851Z,6.70
2022-10-29T05:46:09.916Z,6.20
2022-10-29T05:51:49.780Z,6.80
2022-10-29T05:57:29.834Z,6.90
2022-10-29T06:03:09.866Z,6.70
2022-10-29T06:08:49.818Z,5.80
2022-10-29T06:14:29.846Z,7.10
2022-10-29T06:20:09.903Z,6.30
2022-10-29T06:25:49.867Z,6.70
2022-10-29T06:31:36.820Z,6.20
2022-10-29T06:37:16.837Z,7.00
2022-10-29T06:42:56.824Z,6.50
2022-10-29T06:48:37.808Z,6.20
2022-10-29T06:54:17.825Z,6.10
2022-10-29T06:59:57.945Z,6.20
2022-10-29T07:05:37.825Z,6.50
2022-10-29T07:11:17.968Z,6.00
2022-10-29T07:17:16.891Z,6.60
2022-10-29T07:23:01.911Z,6.70
2022-10-29T07:28:42.043Z,5.80
2022-10-29T07:34:21.891Z,5.70
2022-10-29T07:40:01.924Z,5.90
2022-10-29T07:45:41.905Z,5.60
2022-10-29T07:51:21.933Z,5.70
2022-10-29T08:02:39.892Z,4.60
2022-10-29T08:08:23.871Z,4.80
2022-10-29T08:14:04.906Z,5.40
2022-10-29T08:19:44.917Z,5.20
2022-10-29T08:25:26.007Z,5.10
2022-10-29T08:31:05.921Z,5.10
2022-10-29T08:36:45.901Z,5.30
2022-10-29T08:42:37.963Z,5.40
2022-10-29T08:48:37.948Z,5.40
2022-10-29T08:54:30.255Z,6.00
2022-10-29T09:00:18.983Z,6.20
2022-10-29T09:06:20.899Z,5.60
2022-10-29T09:12:12.934Z,6.40
2022-10-29T09:18:02.004Z,5.40
2022-10-29T09:23:59.040Z,6.40
2022-10-29T09:29:55.027Z,5.90
2022-10-29T09:35:51.921Z,6.20
2022-10-29T09:41:32.951Z,6.40
2022-10-29T09:47:19.952Z,6.40
2022-10-29T09:53:01.979Z,6.40
2022-10-29T09:58:43.016Z,7.30
2022-10-29T10:04:32.948Z,7.40
2022-10-29T10:10:14.937Z,8.50
2022-10-29T10:16:01.991Z,10.60
2022-10-29T10:21:44.983Z,12.60
2022-10-29T10:27:42.992Z,11.10
2022-10-29T10:33:36.030Z,11.70
2022-10-29T10:39:16.014Z,12.00
2022-10-29T10:45:03.220Z,12.10
2022-10-29T10:50:46.981Z,14.40
2022-10-29T10:56:34.032Z,13.10
2022-10-29T11:02:16.162Z,12.40
2022-10-29T11:08:02.004Z,12.00
2022-10-29T11:13:46.010Z,11.00
2022-10-29T11:19:36.803Z,11.60
2022-10-29T11:31:05.127Z,9.40
2022-10-29T11:36:50.026Z,8.40
2022-10-29T11:42:30.023Z,6.80
2022-10-29T11:54:18.075Z,7.20
2022-10-29T12:00:15.081Z,7.20
2022-10-29T12:06:00.227Z,6.40
2022-10-29T12:11:47.052Z,6.90
2022-10-29T12:17:32.110Z,6.80
2022-10-29T12:23:17.339Z,6.50
2022-10-29T12:29:06.032Z,6.20
2022-10-29T12:34:52.078Z,6.50
2022-10-29T12:40:44.178Z,7.40
2022-10-29T12:46:33.232Z,7.30
2022-10-29T12:52:17.081Z,8.60
2022-10-29T12:57:57.098Z,7.70
2022-10-29T13:04:11.044Z,7.70
2022-10-29T13:09:52.092Z,6.20
2022-10-29T13:21:10.208Z,6.50
2022-10-29T13:27:11.075Z,5.80
2022-10-29T13:32:52.280Z,5.80
2022-10-29T13:38:32.098Z,5.50
2022-10-29T13:44:16.270Z,5.30
2022-10-29T13:49:59.213Z,6.20
2022-10-29T13:55:39.107Z,8.90
2022-10-29T14:01:28.238Z,5.90
2022-10-29T14:07:13.062Z,6.70
2022-10-29T14:12:55.438Z,5.40
2022-10-29T14:18:40.139Z,6.10
2022-10-29T14:24:22.127Z,5.80
2022-10-29T14:30:02.131Z,7.50
2022-10-29T14:35:43.140Z,7.60
2022-10-29T14:47:09.321Z,6.00
2022-10-29T14:52:53.826Z,5.40
2022-10-29T14:58:39.116Z,6.00
2022-10-29T15:04:19.209Z,5.40
2022-10-29T15:10:00.155Z,5.50
2022-10-29T15:15:45.180Z,5.80
2022-10-29T15:21:25.127Z,6.70
2022-10-29T15:27:09.223Z,6.00
2022-10-29T15:32:49.182Z,6.00
2022-10-29T15:38:54.225Z,6.70
2022-10-29T15:44:50.191Z,5.50
2022-10-29T15:50:32.174Z,5.30
2022-10-29T15:56:12.191Z,5.60
2022-10-29T16:01:52.274Z,5.40
2022-10-29T16:07:32.181Z,5.60
2022-10-29T16:13:13.192Z,5.50
2022-10-29T16:18:53.448Z,6.20
2022-10-29T16:24:34.232Z,5.90
2022-10-29T16:30:14.248Z,6.50
2022-10-29T16:35:54.236Z,5.90
2022-10-29T16:41:35.184Z,5.60
2022-10-29T16:47:15.213Z,6.80
2022-10-29T16:52:55.240Z,6.40
2022-10-29T16:58:35.203Z,6.80
2022-10-29T17:04:16.266Z,6.00
2022-10-29T17:09:56.264Z,6.40
2022-10-29T17:15:37.205Z,6.30
2022-10-29T17:21:18.592Z,5.80
2022-10-29T17:26:58.199Z,6.50
2022-10-29T17:32:39.753Z,7.30
2022-10-29T17:38:19.233Z,7.60
2022-10-29T17:43:59.380Z,6.20
2022-10-29T17:49:40.743Z,5.70
2022-10-29T17:55:24.292Z,6.00
2022-10-29T18:31:31.029Z,7.40
2022-10-29T18:37:11.020Z,7.20
2022-10-29T18:42:51.077Z,6.70
2022-10-29T18:54:16.109Z,8.20
2022-10-29T18:59:56.096Z,7.50
2022-10-29T19:05:36.113Z,8.20
2022-10-29T19:11:26.049Z,9.20
2022-10-29T19:17:06.081Z,9.00
2022-10-29T19:22:47.083Z,8.90
2022-10-29T19:28:27.112Z,9.30
2022-10-29T19:34:09.117Z,9.20
2022-10-29T19:39:49.081Z,9.50
2022-10-29T19:45:29.214Z,9.40
2022-10-29T19:51:09.144Z,9.80
2022-10-29T19:56:50.191Z,10.10
2022-10-29T20:02:30.295Z,10.40
2022-10-29T20:08:13.066Z,10.30
2022-10-29T20:13:57.082Z,9.50
2022-10-29T20:19:37.185Z,10.30
2022-10-29T20:25:23.999Z,10.60
2022-10-29T20:31:04.133Z,10.50
2022-10-29T20:36:46.339Z,9.60
2022-10-29T20:42:26.138Z,10.60
2022-10-29T20:48:06.118Z,11.10
2022-10-29T20:53:46.144Z,9.50
2022-10-29T20:59:26.165Z,9.40
2022-10-29T21:05:06.139Z,9.60
2022-10-29T21:10:46.193Z,10.10
2022-10-29T21:16:36.193Z,9.00
2022-10-29T21:22:16.238Z,8.70
2022-10-29T21:27:56.511Z,8.80
2022-10-29T21:33:43.278Z,10.00
2022-10-29T21:39:23.151Z,9.50
2022-10-29T21:45:03.163Z,8.90
2022-10-29T21:50:43.216Z,9.60
2022-10-29T21:57:59.214Z,9.70
2022-10-29T22:04:21.278Z,9.20
2022-10-29T22:10:01.226Z,9.60
2022-10-29T22:15:41.232Z,10.00
2022-10-29T22:21:25.210Z,10.50
2022-10-29T22:27:05.251Z,10.30
2022-10-29T22:32:45.204Z,10.40
2022-10-29T22:38:25.219Z,9.80
2022-10-29T22:44:08.404Z,11.20
2022-10-29T22:49:48.229Z,10.60
2022-10-29T22:55:29.229Z,9.80
2022-10-29T23:01:18.410Z,10.30
2022-10-29T23:07:01.775Z,11.50
2022-10-29T23:12:42.288Z,11.50
2022-10-29T23:18:23.236Z,10.60
2022-10-29T23:24:03.255Z,12.30
2022-10-29T23:29:43.343Z,12.00
2022-10-29T23:35:24.267Z,12.50
2022-10-29T23:46:42.297Z,11.10
2022-10-29T23:52:22.340Z,12.90
2022-10-29T23:58:02.304Z,12.80
